Terminal Aerodrome Forecast
Issued by NWS

Home | Current Version | Previous Version | Graphics & Text | Print | Product List | Glossary On
Versions: 1 2 3 4 5 6 7 8 9 10 11 12 13 14 15 16 17 18 19 20 21 22 23
000
FTUS43 KTOP 151200 AAA
TAFFOE
TAF AMD
KFOE 151248Z 1513/1612 10011KT P6SM VCSH BKN030
     FM151300 11012KT P6SM BKN025
     FM160600 11005KT 3SM BR SCT010 BKN013=

USA.gov is the U.S. government's official web portal to all federal, state and local government web resources and services.